KOVE/OVE METAR and TAF weather

Enter ICAO airport designator
Station Type Date Time Source
KOVE METAR 2018/12/12 06:53 UTC NOAA

KOVE 120653Z AUTO 09006KT 10SM BKN060 09/06 A3022 RMK AO2 SLP236 T00940061


Station Type Date Time Source
KOVE Decoded METAR 2018/12/12 06:53 UTC NOAA

OROVILLE MUNICIPAL AIRPORT, CA, United States (KOVE) 39-30N 121-37W 58M
Dec 12, 2018 - 01:53 AM EST / 2018.12.12 0653 UTC
Wind: from the E (090 degrees) at 7 MPH (6 KT):0
Visibility: 10 mile(s):0
Sky conditions: mostly cloudy
Temperature: 48.9 F (9.4 C)
Dew Point: 43.0 F (6.1 C)
Relative Humidity: 79%
Pressure (altimeter): 30.22 in. Hg (1023 hPa)
ob: KOVE 120653Z AUTO 09006KT 10SM BKN060 09/06 A3022 RMK AO2 SLP236 T00940061
cycle: 7

Station Type Date Time Source
KOVE TAF UTC NOAA

Error!


Example: see airport list